sensor_id;sensor_type;location;lat;lon;timestamp;P1;durP1;ratioP1;P2;durP2;ratioP2
42846;SDS011;28495;49.916;14.536;2023-05-10T00:03:19;1.77;;;1.67;;
42846;SDS011;28495;49.916;14.536;2023-05-10T00:08:40;2.65;;;1.60;;
42846;SDS011;28495;49.916;14.536;2023-05-10T00:14:01;3.58;;;1.80;;
42846;SDS011;28495;49.916;14.536;2023-05-10T00:19:22;3.00;;;1.60;;
42846;SDS011;28495;49.916;14.536;2023-05-10T00:24:43;2.00;;;1.60;;
42846;SDS011;28495;49.916;14.536;2023-05-10T00:30:04;1.77;;;1.63;;
42846;SDS011;28495;49.916;14.536;2023-05-10T00:35:25;1.50;;;1.40;;
42846;SDS011;28495;49.916;14.536;2023-05-10T00:40:47;2.75;;;1.50;;
42846;SDS011;28495;49.916;14.536;2023-05-10T00:46:16;4.22;;;1.40;;
42846;SDS011;28495;49.916;14.536;2023-05-10T00:51:37;1.60;;;1.45;;
42846;SDS011;28495;49.916;14.536;2023-05-10T00:56:58;2.40;;;1.88;;
42846;SDS011;28495;49.916;14.536;2023-05-10T01:02:19;4.07;;;1.80;;
42846;SDS011;28495;49.916;14.536;2023-05-10T01:07:40;3.28;;;1.70;;
42846;SDS011;28495;49.916;14.536;2023-05-10T01:13:02;1.50;;;1.40;;
42846;SDS011;28495;49.916;14.536;2023-05-10T01:18:23;2.38;;;1.73;;
42846;SDS011;28495;49.916;14.536;2023-05-10T01:41:13;3.78;;;1.40;;
42846;SDS011;28495;49.916;14.536;2023-05-10T01:46:39;2.55;;;1.65;;
42846;SDS011;28495;49.916;14.536;2023-05-10T01:52:06;3.15;;;1.50;;
42846;SDS011;28495;49.916;14.536;2023-05-10T01:57:32;3.97;;;1.33;;
42846;SDS011;28495;49.916;14.536;2023-05-10T02:02:55;1.38;;;1.00;;
42846;SDS011;28495;49.916;14.536;2023-05-10T02:08:16;1.48;;;1.17;;
42846;SDS011;28495;49.916;14.536;2023-05-10T02:13:39;1.38;;;1.05;;
42846;SDS011;28495;49.916;14.536;2023-05-10T02:19:03;1.83;;;1.20;;
42846;SDS011;28495;49.916;14.536;2023-05-10T02:24:24;1.95;;;1.13;;
42846;SDS011;28495;49.916;14.536;2023-05-10T02:29:46;3.10;;;1.30;;
42846;SDS011;28495;49.916;14.536;2023-05-10T02:35:08;1.90;;;1.23;;
42846;SDS011;28495;49.916;14.536;2023-05-10T02:40:31;1.30;;;1.20;;
42846;SDS011;28495;49.916;14.536;2023-05-10T02:45:54;2.95;;;1.40;;
42846;SDS011;28495;49.916;14.536;2023-05-10T02:51:15;3.47;;;1.30;;
42846;SDS011;28495;49.916;14.536;2023-05-10T02:56:40;3.40;;;1.30;;
42846;SDS011;28495;49.916;14.536;2023-05-10T03:02:06;4.65;;;1.30;;
42846;SDS011;28495;49.916;14.536;2023-05-10T03:07:27;2.45;;;1.35;;
42846;SDS011;28495;49.916;14.536;2023-05-10T03:24:14;1.73;;;1.17;;
42846;SDS011;28495;49.916;14.536;2023-05-10T03:29:38;2.45;;;1.00;;
42846;SDS011;28495;49.916;14.536;2023-05-10T03:35:00;2.78;;;1.23;;
42846;SDS011;28495;49.916;14.536;2023-05-10T03:40:23;3.28;;;1.38;;
42846;SDS011;28495;49.916;14.536;2023-05-10T03:45:45;1.20;;;1.10;;
42846;SDS011;28495;49.916;14.536;2023-05-10T03:51:06;2.95;;;1.05;;
42846;SDS011;28495;49.916;14.536;2023-05-10T03:56:27;1.40;;;1.15;;
42846;SDS011;28495;49.916;14.536;2023-05-10T04:01:47;2.60;;;1.23;;
42846;SDS011;28495;49.916;14.536;2023-05-10T04:07:08;2.20;;;1.60;;
42846;SDS011;28495;49.916;14.536;2023-05-10T04:12:30;1.27;;;1.10;;
42846;SDS011;28495;49.916;14.536;2023-05-10T04:17:51;1.65;;;1.08;;
42846;SDS011;28495;49.916;14.536;2023-05-10T04:23:12;1.30;;;1.20;;
42846;SDS011;28495;49.916;14.536;2023-05-10T04:28:35;1.45;;;1.30;;
42846;SDS011;28495;49.916;14.536;2023-05-10T04:33:55;1.42;;;1.10;;
42846;SDS011;28495;49.916;14.536;2023-05-10T04:39:17;1.30;;;1.20;;
42846;SDS011;28495;49.916;14.536;2023-05-10T04:44:38;1.45;;;1.20;;
42846;SDS011;28495;49.916;14.536;2023-05-10T04:49:59;1.40;;;1.23;;
42846;SDS011;28495;49.916;14.536;2023-05-10T04:55:20;1.83;;;1.27;;
42846;SDS011;28495;49.916;14.536;2023-05-10T05:00:42;1.83;;;1.48;;
42846;SDS011;28495;49.916;14.536;2023-05-10T05:06:04;2.13;;;1.35;;
42846;SDS011;28495;49.916;14.536;2023-05-10T05:11:26;2.35;;;1.30;;
42846;SDS011;28495;49.916;14.536;2023-05-10T05:16:47;1.10;;;1.00;;
42846;SDS011;28495;49.916;14.536;2023-05-10T05:22:08;1.30;;;1.20;;
42846;SDS011;28495;49.916;14.536;2023-05-10T05:27:31;1.58;;;1.33;;
42846;SDS011;28495;49.916;14.536;2023-05-10T05:32:52;1.63;;;1.27;;
42846;SDS011;28495;49.916;14.536;2023-05-10T05:38:13;1.85;;;1.50;;
42846;SDS011;28495;49.916;14.536;2023-05-10T05:43:34;4.25;;;1.38;;
42846;SDS011;28495;49.916;14.536;2023-05-10T05:48:59;2.10;;;1.33;;
42846;SDS011;28495;49.916;14.536;2023-05-10T05:54:20;1.77;;;1.30;;
42846;SDS011;28495;49.916;14.536;2023-05-10T05:59:44;1.98;;;1.33;;
42846;SDS011;28495;49.916;14.536;2023-05-10T06:05:06;3.88;;;1.60;;
42846;SDS011;28495;49.916;14.536;2023-05-10T06:10:27;1.63;;;1.52;;
42846;SDS011;28495;49.916;14.536;2023-05-10T06:15:48;2.33;;;2.00;;
42846;SDS011;28495;49.916;14.536;2023-05-10T06:21:09;3.55;;;1.70;;
42846;SDS011;28495;49.916;14.536;2023-05-10T06:26:30;2.90;;;1.55;;
42846;SDS011;28495;49.916;14.536;2023-05-10T06:31:51;1.20;;;1.08;;
42846;SDS011;28495;49.916;14.536;2023-05-10T06:37:14;2.00;;;1.70;;
42846;SDS011;28495;49.916;14.536;2023-05-10T06:42:35;1.85;;;1.38;;
42846;SDS011;28495;49.916;14.536;2023-05-10T06:47:56;1.92;;;1.20;;
42846;SDS011;28495;49.916;14.536;2023-05-10T06:53:20;2.58;;;1.70;;
42846;SDS011;28495;49.916;14.536;2023-05-10T06:58:42;2.67;;;1.75;;
42846;SDS011;28495;49.916;14.536;2023-05-10T07:04:03;1.67;;;1.30;;
42846;SDS011;28495;49.916;14.536;2023-05-10T07:09:26;1.88;;;1.67;;
42846;SDS011;28495;49.916;14.536;2023-05-10T07:14:47;2.20;;;1.38;;
42846;SDS011;28495;49.916;14.536;2023-05-10T07:20:08;6.35;;;2.50;;
42846;SDS011;28495;49.916;14.536;2023-05-10T07:25:29;2.03;;;1.50;;
42846;SDS011;28495;49.916;14.536;2023-05-10T07:30:50;2.40;;;1.70;;
42846;SDS011;28495;49.916;14.536;2023-05-10T07:36:11;3.15;;;1.60;;
42846;SDS011;28495;49.916;14.536;2023-05-10T07:41:32;3.42;;;2.03;;
42846;SDS011;28495;49.916;14.536;2023-05-10T07:46:55;3.40;;;1.80;;
42846;SDS011;28495;49.916;14.536;2023-05-10T07:52:17;1.45;;;1.30;;
42846;SDS011;28495;49.916;14.536;2023-05-10T07:57:41;2.75;;;1.67;;
42846;SDS011;28495;49.916;14.536;2023-05-10T08:03:02;2.05;;;1.48;;
42846;SDS011;28495;49.916;14.536;2023-05-10T08:08:24;1.88;;;1.75;;
42846;SDS011;28495;49.916;14.536;2023-05-10T08:13:45;1.50;;;1.40;;
42846;SDS011;28495;49.916;14.536;2023-05-10T08:19:07;2.55;;;1.33;;
42846;SDS011;28495;49.916;14.536;2023-05-10T08:24:28;2.95;;;1.90;;
42846;SDS011;28495;49.916;14.536;2023-05-10T08:29:49;2.22;;;2.00;;
42846;SDS011;28495;49.916;14.536;2023-05-10T08:35:10;2.33;;;1.83;;
42846;SDS011;28495;49.916;14.536;2023-05-10T08:40:31;3.78;;;1.75;;
42846;SDS011;28495;49.916;14.536;2023-05-10T08:45:52;2.28;;;1.58;;
42846;SDS011;28495;49.916;14.536;2023-05-10T08:51:18;1.67;;;1.58;;
42846;SDS011;28495;49.916;14.536;2023-05-10T08:56:40;2.00;;;1.60;;
42846;SDS011;28495;49.916;14.536;2023-05-10T09:02:01;2.63;;;1.58;;
42846;SDS011;28495;49.916;14.536;2023-05-10T09:07:25;1.52;;;1.40;;
42846;SDS011;28495;49.916;14.536;2023-05-10T09:12:46;3.35;;;1.75;;
42846;SDS011;28495;49.916;14.536;2023-05-10T09:18:09;1.50;;;1.40;;
42846;SDS011;28495;49.916;14.536;2023-05-10T09:23:30;3.10;;;2.05;;
42846;SDS011;28495;49.916;14.536;2023-05-10T09:28:59;11.85;;;2.28;;
42846;SDS011;28495;49.916;14.536;2023-05-10T09:34:30;2.00;;;1.65;;
42846;SDS011;28495;49.916;14.536;2023-05-10T09:39:52;1.55;;;1.45;;
42846;SDS011;28495;49.916;14.536;2023-05-10T09:45:15;1.58;;;1.48;;
42846;SDS011;28495;49.916;14.536;2023-05-10T09:50:36;5.20;;;1.48;;
42846;SDS011;28495;49.916;14.536;2023-05-10T09:55:58;2.13;;;1.60;;
42846;SDS011;28495;49.916;14.536;2023-05-10T10:01:19;2.58;;;1.85;;
42846;SDS011;28495;49.916;14.536;2023-05-10T10:06:40;2.58;;;1.20;;
42846;SDS011;28495;49.916;14.536;2023-05-10T10:12:02;2.25;;;2.05;;
42846;SDS011;28495;49.916;14.536;2023-05-10T10:17:24;2.63;;;1.30;;
42846;SDS011;28495;49.916;14.536;2023-05-10T10:22:49;1.95;;;1.60;;
42846;SDS011;28495;49.916;14.536;2023-05-10T10:28:13;3.47;;;1.38;;
42846;SDS011;28495;49.916;14.536;2023-05-10T10:34:01;2.88;;;1.58;;
42846;SDS011;28495;49.916;14.536;2023-05-10T10:39:27;1.63;;;1.15;;
42846;SDS011;28495;49.916;14.536;2023-05-10T10:44:48;3.35;;;1.30;;
42846;SDS011;28495;49.916;14.536;2023-05-10T10:50:09;4.63;;;1.50;;
42846;SDS011;28495;49.916;14.536;2023-05-10T10:55:31;2.05;;;1.73;;
42846;SDS011;28495;49.916;14.536;2023-05-10T11:01:08;2.90;;;1.63;;
42846;SDS011;28495;49.916;14.536;2023-05-10T11:06:34;1.60;;;1.50;;
42846;SDS011;28495;49.916;14.536;2023-05-10T11:11:56;1.60;;;1.40;;
42846;SDS011;28495;49.916;14.536;2023-05-10T11:17:22;2.47;;;2.28;;
42846;SDS011;28495;49.916;14.536;2023-05-10T11:22:54;2.25;;;1.70;;
42846;SDS011;28495;49.916;14.536;2023-05-10T11:28:16;1.73;;;1.63;;
42846;SDS011;28495;49.916;14.536;2023-05-10T11:33:43;1.73;;;1.52;;
42846;SDS011;28495;49.916;14.536;2023-05-10T11:39:06;2.13;;;1.60;;
42846;SDS011;28495;49.916;14.536;2023-05-10T11:44:30;1.33;;;1.20;;
42846;SDS011;28495;49.916;14.536;2023-05-10T11:49:52;2.13;;;1.88;;
42846;SDS011;28495;49.916;14.536;2023-05-10T11:55:14;2.08;;;1.38;;
42846;SDS011;28495;49.916;14.536;2023-05-10T12:00:34;2.45;;;1.85;;
42846;SDS011;28495;49.916;14.536;2023-05-10T12:05:56;2.97;;;1.75;;
42846;SDS011;28495;49.916;14.536;2023-05-10T12:11:18;5.65;;;2.40;;
42846;SDS011;28495;49.916;14.536;2023-05-10T12:16:39;2.80;;;1.90;;
42846;SDS011;28495;49.916;14.536;2023-05-10T12:22:04;3.13;;;1.90;;
42846;SDS011;28495;49.916;14.536;2023-05-10T12:27:31;3.38;;;2.00;;
42846;SDS011;28495;49.916;14.536;2023-05-10T12:33:13;3.90;;;2.20;;
42846;SDS011;28495;49.916;14.536;2023-05-10T12:38:41;3.47;;;2.17;;
42846;SDS011;28495;49.916;14.536;2023-05-10T12:44:03;2.58;;;1.92;;
42846;SDS011;28495;49.916;14.536;2023-05-10T12:49:24;2.95;;;2.00;;
42846;SDS011;28495;49.916;14.536;2023-05-10T12:54:46;3.33;;;1.92;;
42846;SDS011;28495;49.916;14.536;2023-05-10T13:00:07;1.70;;;1.60;;
42846;SDS011;28495;49.916;14.536;2023-05-10T13:05:29;2.28;;;2.00;;
42846;SDS011;28495;49.916;14.536;2023-05-10T13:10:49;2.38;;;1.70;;
42846;SDS011;28495;49.916;14.536;2023-05-10T13:16:10;2.08;;;1.85;;
42846;SDS011;28495;49.916;14.536;2023-05-10T13:21:31;2.70;;;1.98;;
42846;SDS011;28495;49.916;14.536;2023-05-10T13:26:53;2.70;;;1.80;;
42846;SDS011;28495;49.916;14.536;2023-05-10T13:32:13;7.30;;;2.13;;
42846;SDS011;28495;49.916;14.536;2023-05-10T13:37:34;2.08;;;1.70;;
42846;SDS011;28495;49.916;14.536;2023-05-10T13:42:57;2.58;;;2.00;;
42846;SDS011;28495;49.916;14.536;2023-05-10T13:48:18;2.70;;;1.92;;
42846;SDS011;28495;49.916;14.536;2023-05-10T13:53:39;1.73;;;1.63;;
42846;SDS011;28495;49.916;14.536;2023-05-10T13:59:00;2.40;;;1.75;;
42846;SDS011;28495;49.916;14.536;2023-05-10T14:04:21;3.33;;;1.60;;
42846;SDS011;28495;49.916;14.536;2023-05-10T14:09:42;3.63;;;2.08;;
42846;SDS011;28495;49.916;14.536;2023-05-10T14:15:03;3.30;;;1.70;;
42846;SDS011;28495;49.916;14.536;2023-05-10T14:20:27;2.35;;;1.98;;
42846;SDS011;28495;49.916;14.536;2023-05-10T14:25:48;3.90;;;1.60;;
42846;SDS011;28495;49.916;14.536;2023-05-10T14:31:10;5.93;;;1.80;;
42846;SDS011;28495;49.916;14.536;2023-05-10T14:36:30;1.98;;;1.70;;
42846;SDS011;28495;49.916;14.536;2023-05-10T14:41:52;2.40;;;1.60;;
42846;SDS011;28495;49.916;14.536;2023-05-10T14:47:12;3.40;;;1.90;;
42846;SDS011;28495;49.916;14.536;2023-05-10T14:52:33;3.30;;;1.73;;
42846;SDS011;28495;49.916;14.536;2023-05-10T14:57:54;4.30;;;2.00;;
42846;SDS011;28495;49.916;14.536;2023-05-10T15:03:15;2.65;;;1.40;;
42846;SDS011;28495;49.916;14.536;2023-05-10T15:08:37;3.10;;;1.42;;
42846;SDS011;28495;49.916;14.536;2023-05-10T15:13:57;5.85;;;1.75;;
42846;SDS011;28495;49.916;14.536;2023-05-10T15:19:19;2.92;;;1.88;;
42846;SDS011;28495;49.916;14.536;2023-05-10T15:24:40;2.10;;;1.52;;
42846;SDS011;28495;49.916;14.536;2023-05-10T15:30:01;4.13;;;1.70;;
42846;SDS011;28495;49.916;14.536;2023-05-10T15:35:23;2.20;;;1.30;;
42846;SDS011;28495;49.916;14.536;2023-05-10T15:40:44;2.45;;;1.67;;
42846;SDS011;28495;49.916;14.536;2023-05-10T15:46:06;5.43;;;1.50;;
42846;SDS011;28495;49.916;14.536;2023-05-10T15:51:27;2.58;;;1.65;;
42846;SDS011;28495;49.916;14.536;2023-05-10T15:56:50;4.45;;;1.75;;
42846;SDS011;28495;49.916;14.536;2023-05-10T16:02:13;3.65;;;1.67;;
42846;SDS011;28495;49.916;14.536;2023-05-10T16:07:37;2.63;;;1.40;;
42846;SDS011;28495;49.916;14.536;2023-05-10T16:13:01;3.35;;;1.45;;
42846;SDS011;28495;49.916;14.536;2023-05-10T16:18:23;2.67;;;1.70;;
42846;SDS011;28495;49.916;14.536;2023-05-10T16:23:44;1.83;;;1.33;;
42846;SDS011;28495;49.916;14.536;2023-05-10T16:29:06;2.15;;;1.50;;
42846;SDS011;28495;49.916;14.536;2023-05-10T16:34:28;4.60;;;1.65;;
42846;SDS011;28495;49.916;14.536;2023-05-10T16:39:48;2.05;;;1.73;;
42846;SDS011;28495;49.916;14.536;2023-05-10T16:45:09;2.65;;;1.40;;
42846;SDS011;28495;49.916;14.536;2023-05-10T16:50:31;2.88;;;1.52;;
42846;SDS011;28495;49.916;14.536;2023-05-10T16:55:52;1.80;;;1.45;;
42846;SDS011;28495;49.916;14.536;2023-05-10T17:01:13;5.22;;;1.70;;
42846;SDS011;28495;49.916;14.536;2023-05-10T17:06:34;1.73;;;1.50;;
42846;SDS011;28495;49.916;14.536;2023-05-10T17:11:56;2.42;;;1.70;;
42846;SDS011;28495;49.916;14.536;2023-05-10T17:17:18;1.63;;;1.35;;
42846;SDS011;28495;49.916;14.536;2023-05-10T17:22:40;11.13;;;2.28;;
42846;SDS011;28495;49.916;14.536;2023-05-10T17:28:01;3.10;;;1.50;;
42846;SDS011;28495;49.916;14.536;2023-05-10T17:33:22;1.75;;;1.38;;
42846;SDS011;28495;49.916;14.536;2023-05-10T17:38:44;1.90;;;1.60;;
42846;SDS011;28495;49.916;14.536;2023-05-10T17:44:05;2.85;;;1.52;;
42846;SDS011;28495;49.916;14.536;2023-05-10T17:49:27;2.33;;;1.55;;
42846;SDS011;28495;49.916;14.536;2023-05-10T17:54:50;1.90;;;1.48;;
42846;SDS011;28495;49.916;14.536;2023-05-10T18:00:13;5.38;;;1.80;;
42846;SDS011;28495;49.916;14.536;2023-05-10T18:05:37;2.65;;;1.38;;
42846;SDS011;28495;49.916;14.536;2023-05-10T18:10:58;1.20;;;1.10;;
42846;SDS011;28495;49.916;14.536;2023-05-10T18:16:20;4.70;;;2.67;;
42846;SDS011;28495;49.916;14.536;2023-05-10T18:21:41;3.85;;;2.28;;
42846;SDS011;28495;49.916;14.536;2023-05-10T18:27:02;3.63;;;2.80;;
42846;SDS011;28495;49.916;14.536;2023-05-10T18:32:25;3.10;;;2.20;;
42846;SDS011;28495;49.916;14.536;2023-05-10T18:38:01;3.40;;;3.08;;
42846;SDS011;28495;49.916;14.536;2023-05-10T18:43:25;9.45;;;3.83;;
42846;SDS011;28495;49.916;14.536;2023-05-10T18:48:46;7.45;;;3.13;;
42846;SDS011;28495;49.916;14.536;2023-05-10T18:54:07;4.32;;;3.15;;
42846;SDS011;28495;49.916;14.536;2023-05-10T18:59:28;8.02;;;3.28;;
42846;SDS011;28495;49.916;14.536;2023-05-10T19:04:50;4.75;;;3.17;;
42846;SDS011;28495;49.916;14.536;2023-05-10T19:10:11;4.35;;;3.47;;
42846;SDS011;28495;49.916;14.536;2023-05-10T19:15:33;7.78;;;4.57;;
42846;SDS011;28495;49.916;14.536;2023-05-10T19:20:54;10.02;;;4.18;;
42846;SDS011;28495;49.916;14.536;2023-05-10T19:26:16;4.70;;;3.58;;
42846;SDS011;28495;49.916;14.536;2023-05-10T19:31:39;9.55;;;4.05;;
42846;SDS011;28495;49.916;14.536;2023-05-10T19:37:00;7.65;;;4.88;;
42846;SDS011;28495;49.916;14.536;2023-05-10T19:42:21;8.75;;;4.95;;
42846;SDS011;28495;49.916;14.536;2023-05-10T19:47:43;6.75;;;4.53;;
42846;SDS011;28495;49.916;14.536;2023-05-10T19:53:04;6.45;;;4.28;;
42846;SDS011;28495;49.916;14.536;2023-05-10T19:58:25;5.88;;;4.50;;
42846;SDS011;28495;49.916;14.536;2023-05-10T20:03:48;7.03;;;4.80;;
42846;SDS011;28495;49.916;14.536;2023-05-10T20:09:09;8.88;;;4.18;;
42846;SDS011;28495;49.916;14.536;2023-05-10T20:14:30;4.63;;;3.47;;
42846;SDS011;28495;49.916;14.536;2023-05-10T20:19:50;8.07;;;5.60;;
42846;SDS011;28495;49.916;14.536;2023-05-10T20:25:12;7.57;;;4.85;;
42846;SDS011;28495;49.916;14.536;2023-05-10T20:30:34;4.32;;;2.95;;
42846;SDS011;28495;49.916;14.536;2023-05-10T20:35:55;4.57;;;3.08;;
42846;SDS011;28495;49.916;14.536;2023-05-10T20:41:16;4.60;;;3.28;;
42846;SDS011;28495;49.916;14.536;2023-05-10T20:46:38;4.72;;;3.00;;
42846;SDS011;28495;49.916;14.536;2023-05-10T20:52:00;3.83;;;2.90;;
42846;SDS011;28495;49.916;14.536;2023-05-10T20:57:22;8.02;;;4.00;;
42846;SDS011;28495;49.916;14.536;2023-05-10T21:02:44;8.40;;;4.35;;
42846;SDS011;28495;49.916;14.536;2023-05-10T21:08:05;8.45;;;5.22;;
42846;SDS011;28495;49.916;14.536;2023-05-10T21:13:26;9.55;;;5.80;;
42846;SDS011;28495;49.916;14.536;2023-05-10T21:18:47;14.18;;;7.18;;
42846;SDS011;28495;49.916;14.536;2023-05-10T21:24:07;9.55;;;5.30;;
42846;SDS011;28495;49.916;14.536;2023-05-10T21:29:29;8.23;;;4.35;;
42846;SDS011;28495;49.916;14.536;2023-05-10T21:34:50;5.65;;;3.45;;
42846;SDS011;28495;49.916;14.536;2023-05-10T21:40:11;4.70;;;3.35;;
42846;SDS011;28495;49.916;14.536;2023-05-10T21:45:32;6.93;;;4.22;;
42846;SDS011;28495;49.916;14.536;2023-05-10T21:50:53;11.35;;;3.30;;
42846;SDS011;28495;49.916;14.536;2023-05-10T21:56:14;3.30;;;1.88;;
42846;SDS011;28495;49.916;14.536;2023-05-10T22:01:35;3.67;;;1.70;;
42846;SDS011;28495;49.916;14.536;2023-05-10T22:06:57;2.45;;;2.00;;
42846;SDS011;28495;49.916;14.536;2023-05-10T22:12:18;2.95;;;1.70;;
42846;SDS011;28495;49.916;14.536;2023-05-10T22:17:39;1.63;;;1.20;;
42846;SDS011;28495;49.916;14.536;2023-05-10T22:23:01;1.60;;;1.38;;
42846;SDS011;28495;49.916;14.536;2023-05-10T22:28:23;1.98;;;1.70;;
42846;SDS011;28495;49.916;14.536;2023-05-10T22:33:45;2.08;;;1.40;;
42846;SDS011;28495;49.916;14.536;2023-05-10T22:39:05;1.73;;;1.60;;
42846;SDS011;28495;49.916;14.536;2023-05-10T22:44:26;2.67;;;1.20;;
42846;SDS011;28495;49.916;14.536;2023-05-10T22:49:47;2.45;;;1.50;;
42846;SDS011;28495;49.916;14.536;2023-05-10T22:55:08;2.20;;;1.52;;
42846;SDS011;28495;49.916;14.536;2023-05-10T23:00:29;1.77;;;1.40;;
42846;SDS011;28495;49.916;14.536;2023-05-10T23:05:50;2.00;;;1.80;;
42846;SDS011;28495;49.916;14.536;2023-05-10T23:11:12;2.83;;;1.70;;
42846;SDS011;28495;49.916;14.536;2023-05-10T23:16:34;1.30;;;1.20;;
42846;SDS011;28495;49.916;14.536;2023-05-10T23:21:55;1.65;;;1.30;;
42846;SDS011;28495;49.916;14.536;2023-05-10T23:27:16;1.50;;;1.20;;
42846;SDS011;28495;49.916;14.536;2023-05-10T23:32:37;1.75;;;1.50;;
42846;SDS011;28495;49.916;14.536;2023-05-10T23:37:58;1.48;;;1.38;;
42846;SDS011;28495;49.916;14.536;2023-05-10T23:43:19;1.58;;;1.48;;
42846;SDS011;28495;49.916;14.536;2023-05-10T23:48:41;1.88;;;1.20;;
42846;SDS011;28495;49.916;14.536;2023-05-10T23:54:03;3.03;;;1.30;;
42846;SDS011;28495;49.916;14.536;2023-05-10T23:59:24;1.83;;;1.52;;
